sensor_id;sensor_type;location;lat;lon;timestamp;pressure;altitude;pressure_sealevel;temperature;humidity
52291;BME280;39663;45.432;28.050;2023-04-05T00:00:11;100597.83;;;12.71;49.84
52291;BME280;39663;45.432;28.050;2023-04-05T00:00:43;100600.96;;;12.68;50.11
52291;BME280;39663;45.432;28.050;2023-04-05T00:01:14;100601.73;;;12.63;50.15
52291;BME280;39663;45.432;28.050;2023-04-05T00:01:46;100604.00;;;12.66;50.04
52291;BME280;39663;45.432;28.050;2023-04-05T00:02:19;100599.87;;;13.06;49.95
52291;BME280;39663;45.432;28.050;2023-04-05T00:02:50;100596.65;;;12.35;50.13
52291;BME280;39663;45.432;28.050;2023-04-05T00:03:22;100602.38;;;12.67;50.27
52291;BME280;39663;45.432;28.050;2023-04-05T00:03:54;100604.52;;;12.69;50.22
52291;BME280;39663;45.432;28.050;2023-04-05T00:04:26;100605.99;;;12.63;50.00
52291;BME280;39663;45.432;28.050;2023-04-05T00:04:58;100606.70;;;12.63;50.08
52291;BME280;39663;45.432;28.050;2023-04-05T00:05:30;100602.74;;;12.62;50.08
52291;BME280;39663;45.432;28.050;2023-04-05T00:06:01;100601.05;;;12.68;50.19
52291;BME280;39663;45.432;28.050;2023-04-05T00:06:33;100603.38;;;12.65;50.15
52291;BME280;39663;45.432;28.050;2023-04-05T00:07:04;100600.37;;;12.66;50.25
52291;BME280;39663;45.432;28.050;2023-04-05T00:07:36;100615.45;;;12.58;50.39
52291;BME280;39663;45.432;28.050;2023-04-05T00:08:07;100613.71;;;12.67;50.28
52291;BME280;39663;45.432;28.050;2023-04-05T00:08:39;100614.26;;;12.67;50.30
52291;BME280;39663;45.432;28.050;2023-04-05T00:09:10;100609.44;;;12.66;50.32
52291;BME280;39663;45.432;28.050;2023-04-05T00:09:41;100615.57;;;12.67;50.22
52291;BME280;39663;45.432;28.050;2023-04-05T00:10:13;100612.92;;;12.84;50.28
52291;BME280;39663;45.432;28.050;2023-04-05T00:10:44;100609.71;;;12.67;50.17
52291;BME280;39663;45.432;28.050;2023-04-05T00:11:16;100608.58;;;12.63;49.66
52291;BME280;39663;45.432;28.050;2023-04-05T00:11:48;100610.99;;;12.44;49.94
52291;BME280;39663;45.432;28.050;2023-04-05T00:12:19;100606.23;;;12.63;50.01
52291;BME280;39663;45.432;28.050;2023-04-05T00:12:51;100606.18;;;12.69;49.67
52291;BME280;39663;45.432;28.050;2023-04-05T00:13:22;100604.08;;;12.57;50.24
52291;BME280;39663;45.432;28.050;2023-04-05T00:13:54;100615.37;;;12.58;50.13
52291;BME280;39663;45.432;28.050;2023-04-05T00:14:26;100606.44;;;12.64;50.03
52291;BME280;39663;45.432;28.050;2023-04-05T00:14:57;100605.17;;;12.66;50.02
52291;BME280;39663;45.432;28.050;2023-04-05T00:15:29;100610.25;;;12.63;49.90
52291;BME280;39663;45.432;28.050;2023-04-05T00:16:00;100609.18;;;12.65;50.07
52291;BME280;39663;45.432;28.050;2023-04-05T00:16:32;100607.09;;;12.61;49.96
52291;BME280;39663;45.432;28.050;2023-04-05T00:17:04;100606.33;;;12.54;50.02
52291;BME280;39663;45.432;28.050;2023-04-05T00:17:35;100609.61;;;12.61;50.17
52291;BME280;39663;45.432;28.050;2023-04-05T00:18:07;100603.94;;;12.41;50.18
52291;BME280;39663;45.432;28.050;2023-04-05T00:18:38;100600.83;;;12.62;50.22
52291;BME280;39663;45.432;28.050;2023-04-05T00:19:10;100607.90;;;12.59;50.27
52291;BME280;39663;45.432;28.050;2023-04-05T00:19:42;100606.02;;;11.89;50.14
52291;BME280;39663;45.432;28.050;2023-04-05T00:20:13;100607.83;;;12.16;50.29
52291;BME280;39663;45.432;28.050;2023-04-05T00:20:45;100605.74;;;12.50;50.21
52291;BME280;39663;45.432;28.050;2023-04-05T00:21:16;100608.59;;;12.42;50.21
52291;BME280;39663;45.432;28.050;2023-04-05T00:21:48;100611.61;;;12.32;50.09
52291;BME280;39663;45.432;28.050;2023-04-05T00:22:20;100610.95;;;12.62;50.13
52291;BME280;39663;45.432;28.050;2023-04-05T00:22:51;100611.24;;;12.14;49.94
52291;BME280;39663;45.432;28.050;2023-04-05T00:23:23;100611.66;;;11.68;50.00
52291;BME280;39663;45.432;28.050;2023-04-05T00:23:58;100614.95;;;11.43;50.13
52291;BME280;39663;45.432;28.050;2023-04-05T00:24:29;100607.41;;;11.99;49.99
52291;BME280;39663;45.432;28.050;2023-04-05T00:25:01;100608.30;;;12.61;49.80
52291;BME280;39663;45.432;28.050;2023-04-05T00:25:32;100612.90;;;12.24;49.96
52291;BME280;39663;45.432;28.050;2023-04-05T00:26:04;100606.00;;;12.41;49.85
52291;BME280;39663;45.432;28.050;2023-04-05T00:26:35;100606.37;;;12.65;49.87
52291;BME280;39663;45.432;28.050;2023-04-05T00:27:07;100604.98;;;12.50;49.89
52291;BME280;39663;45.432;28.050;2023-04-05T00:27:38;100601.11;;;12.64;49.75
52291;BME280;39663;45.432;28.050;2023-04-05T00:28:13;100603.56;;;12.69;49.72
52291;BME280;39663;45.432;28.050;2023-04-05T00:28:45;100596.88;;;12.62;49.52
52291;BME280;39663;45.432;28.050;2023-04-05T00:29:16;100599.50;;;12.45;49.70
52291;BME280;39663;45.432;28.050;2023-04-05T00:29:48;100597.17;;;12.64;49.80
52291;BME280;39663;45.432;28.050;2023-04-05T00:30:19;100602.17;;;12.61;50.01
52291;BME280;39663;45.432;28.050;2023-04-05T00:30:51;100602.66;;;12.64;50.10
52291;BME280;39663;45.432;28.050;2023-04-05T00:31:22;100599.18;;;12.72;50.01
52291;BME280;39663;45.432;28.050;2023-04-05T00:31:54;100599.58;;;12.40;50.06
52291;BME280;39663;45.432;28.050;2023-04-05T00:32:26;100593.99;;;12.67;49.85
52291;BME280;39663;45.432;28.050;2023-04-05T00:32:57;100599.40;;;12.71;49.87
52291;BME280;39663;45.432;28.050;2023-04-05T00:33:29;100598.14;;;12.65;49.67
52291;BME280;39663;45.432;28.050;2023-04-05T00:34:00;100600.26;;;12.65;49.85
52291;BME280;39663;45.432;28.050;2023-04-05T00:34:32;100592.13;;;12.40;49.69
52291;BME280;39663;45.432;28.050;2023-04-05T00:35:04;100592.01;;;12.60;49.85
52291;BME280;39663;45.432;28.050;2023-04-05T00:35:36;100601.65;;;12.49;50.03
52291;BME280;39663;45.432;28.050;2023-04-05T00:36:09;100599.76;;;12.60;50.05
52291;BME280;39663;45.432;28.050;2023-04-05T00:36:40;100596.48;;;12.68;50.05
52291;BME280;39663;45.432;28.050;2023-04-05T00:37:12;100596.31;;;12.48;49.95
52291;BME280;39663;45.432;28.050;2023-04-05T00:37:43;100598.79;;;12.61;49.80
52291;BME280;39663;45.432;28.050;2023-04-05T00:38:15;100598.24;;;12.49;50.03
52291;BME280;39663;45.432;28.050;2023-04-05T00:38:47;100602.95;;;12.52;50.08
52291;BME280;39663;45.432;28.050;2023-04-05T00:39:19;100597.20;;;12.77;50.12
52291;BME280;39663;45.432;28.050;2023-04-05T00:39:50;100601.76;;;12.54;50.23
52291;BME280;39663;45.432;28.050;2023-04-05T00:40:22;100596.17;;;12.44;50.06
52291;BME280;39663;45.432;28.050;2023-04-05T00:40:53;100597.24;;;12.32;50.29
52291;BME280;39663;45.432;28.050;2023-04-05T00:41:25;100591.84;;;12.53;50.25
52291;BME280;39663;45.432;28.050;2023-04-05T00:41:57;100595.43;;;12.54;50.14
52291;BME280;39663;45.432;28.050;2023-04-05T00:42:28;100597.33;;;12.56;50.17
52291;BME280;39663;45.432;28.050;2023-04-05T00:43:00;100588.32;;;12.55;50.16
52291;BME280;39663;45.432;28.050;2023-04-05T00:43:31;100597.50;;;12.69;50.02
52291;BME280;39663;45.432;28.050;2023-04-05T00:44:03;100590.31;;;12.59;50.02
52291;BME280;39663;45.432;28.050;2023-04-05T00:44:34;100595.78;;;12.34;50.19
52291;BME280;39663;45.432;28.050;2023-04-05T00:45:07;100591.81;;;12.91;50.18
52291;BME280;39663;45.432;28.050;2023-04-05T00:45:38;100594.53;;;12.52;50.03
52291;BME280;39663;45.432;28.050;2023-04-05T00:46:10;100599.33;;;12.93;49.78
52291;BME280;39663;45.432;28.050;2023-04-05T00:46:41;100591.61;;;12.25;50.09
52291;BME280;39663;45.432;28.050;2023-04-05T00:47:13;100592.64;;;12.46;50.10
52291;BME280;39663;45.432;28.050;2023-04-05T00:47:45;100597.53;;;12.55;50.29
52291;BME280;39663;45.432;28.050;2023-04-05T00:48:17;100593.62;;;12.44;50.16
52291;BME280;39663;45.432;28.050;2023-04-05T00:48:48;100601.87;;;12.63;50.17
52291;BME280;39663;45.432;28.050;2023-04-05T00:49:20;100589.69;;;12.64;50.23
52291;BME280;39663;45.432;28.050;2023-04-05T00:49:52;100596.98;;;12.42;50.25
52291;BME280;39663;45.432;28.050;2023-04-05T00:50:24;100597.92;;;12.66;50.07
52291;BME280;39663;45.432;28.050;2023-04-05T00:50:57;100602.20;;;12.45;50.22
52291;BME280;39663;45.432;28.050;2023-04-05T00:51:30;100606.54;;;12.46;50.25
52291;BME280;39663;45.432;28.050;2023-04-05T00:52:01;100600.60;;;12.65;50.08
52291;BME280;39663;45.432;28.050;2023-04-05T00:52:34;100599.45;;;12.70;49.99
52291;BME280;39663;45.432;28.050;2023-04-05T00:53:06;100595.64;;;12.70;50.03
52291;BME280;39663;45.432;28.050;2023-04-05T00:53:39;100597.88;;;12.49;50.07
52291;BME280;39663;45.432;28.050;2023-04-05T00:54:11;100598.90;;;12.67;50.04
52291;BME280;39663;45.432;28.050;2023-04-05T00:54:43;100602.95;;;12.74;50.04
52291;BME280;39663;45.432;28.050;2023-04-05T00:55:14;100599.19;;;12.50;50.10
52291;BME280;39663;45.432;28.050;2023-04-05T00:55:47;100600.57;;;12.49;50.23
52291;BME280;39663;45.432;28.050;2023-04-05T00:56:19;100599.56;;;12.75;50.29
52291;BME280;39663;45.432;28.050;2023-04-05T00:56:51;100604.02;;;12.50;50.15
52291;BME280;39663;45.432;28.050;2023-04-05T00:57:22;100604.81;;;12.32;50.24
52291;BME280;39663;45.432;28.050;2023-04-05T00:57:55;100596.10;;;12.73;50.06
52291;BME280;39663;45.432;28.050;2023-04-05T00:58:26;100600.06;;;12.72;50.09
52291;BME280;39663;45.432;28.050;2023-04-05T00:58:58;100599.70;;;12.68;50.23
52291;BME280;39663;45.432;28.050;2023-04-05T00:59:29;100598.65;;;12.52;50.22
52291;BME280;39663;45.432;28.050;2023-04-05T01:00:02;100597.46;;;12.49;50.30
52291;BME280;39663;45.432;28.050;2023-04-05T01:00:34;100604.42;;;12.52;50.15
52291;BME280;39663;45.432;28.050;2023-04-05T01:01:13;100605.64;;;12.34;50.16
52291;BME280;39663;45.432;28.050;2023-04-05T01:01:51;100599.51;;;12.51;50.15
52291;BME280;39663;45.432;28.050;2023-04-05T01:02:31;100606.59;;;12.51;50.09
52291;BME280;39663;45.432;28.050;2023-04-05T01:03:03;100608.30;;;12.48;49.92
52291;BME280;39663;45.432;28.050;2023-04-05T01:03:37;100602.11;;;12.68;50.03
52291;BME280;39663;45.432;28.050;2023-04-05T01:04:11;100600.81;;;12.48;50.16
52291;BME280;39663;45.432;28.050;2023-04-05T01:04:45;100602.12;;;12.76;50.02
52291;BME280;39663;45.432;28.050;2023-04-05T01:05:28;100603.54;;;12.56;50.05
52291;BME280;39663;45.432;28.050;2023-04-05T01:06:10;100605.92;;;12.51;50.05
52291;BME280;39663;45.432;28.050;2023-04-05T01:07:01;100614.76;;;12.46;49.88
52291;BME280;39663;45.432;28.050;2023-04-05T01:07:39;100599.61;;;12.47;49.99
52291;BME280;39663;45.432;28.050;2023-04-05T01:08:17;100601.93;;;12.48;50.11
52291;BME280;39663;45.432;28.050;2023-04-05T01:08:59;100607.04;;;12.72;50.05
52291;BME280;39663;45.432;28.050;2023-04-05T01:09:43;100603.35;;;12.52;49.99
52291;BME280;39663;45.432;28.050;2023-04-05T01:10:16;100609.68;;;12.44;49.95
52291;BME280;39663;45.432;28.050;2023-04-05T01:10:55;100601.61;;;12.49;49.93
52291;BME280;39663;45.432;28.050;2023-04-05T01:11:29;100609.65;;;12.47;50.06
52291;BME280;39663;45.432;28.050;2023-04-05T01:12:05;100608.52;;;12.48;50.01
52291;BME280;39663;45.432;28.050;2023-04-05T01:12:38;100608.50;;;12.46;49.98
52291;BME280;39663;45.432;28.050;2023-04-05T01:13:09;100606.47;;;12.48;49.96
52291;BME280;39663;45.432;28.050;2023-04-05T01:13:44;100611.10;;;12.29;50.00
52291;BME280;39663;45.432;28.050;2023-04-05T01:14:15;100608.04;;;12.66;50.01
52291;BME280;39663;45.432;28.050;2023-04-05T01:14:48;100609.67;;;12.46;49.77
52291;BME280;39663;45.432;28.050;2023-04-05T01:15:20;100607.09;;;12.48;49.59
52291;BME280;39663;45.432;28.050;2023-04-05T01:15:51;100607.42;;;12.41;49.81
52291;BME280;39663;45.432;28.050;2023-04-05T01:16:23;100608.58;;;12.69;50.01
52291;BME280;39663;45.432;28.050;2023-04-05T01:16:54;100605.33;;;12.56;49.21
52291;BME280;39663;45.432;28.050;2023-04-05T01:17:27;100604.48;;;12.39;49.93
52291;BME280;39663;45.432;28.050;2023-04-05T01:17:58;100597.11;;;12.47;49.91
52291;BME280;39663;45.432;28.050;2023-04-05T01:18:30;100604.19;;;12.44;50.02
52291;BME280;39663;45.432;28.050;2023-04-05T01:19:02;100607.99;;;12.49;49.86
52291;BME280;39663;45.432;28.050;2023-04-05T01:19:33;100607.07;;;12.44;49.54
52291;BME280;39663;45.432;28.050;2023-04-05T01:20:07;100609.94;;;12.60;49.94
52291;BME280;39663;45.432;28.050;2023-04-05T01:20:43;100600.01;;;12.42;49.93
52291;BME280;39663;45.432;28.050;2023-04-05T01:21:33;100613.19;;;12.51;49.57
52291;BME280;39663;45.432;28.050;2023-04-05T01:23:17;100606.38;;;12.36;49.78
52291;BME280;39663;45.432;28.050;2023-04-05T01:23:58;100616.15;;;12.41;49.77
52291;BME280;39663;45.432;28.050;2023-04-05T01:24:47;100605.99;;;12.38;50.05
52291;BME280;39663;45.432;28.050;2023-04-05T01:25:35;100617.56;;;12.38;50.01
52291;BME280;39663;45.432;28.050;2023-04-05T01:26:32;100613.99;;;12.58;50.00
52291;BME280;39663;45.432;28.050;2023-04-05T01:27:15;100622.29;;;12.62;50.03
52291;BME280;39663;45.432;28.050;2023-04-05T01:28:10;100621.68;;;12.35;50.07
52291;BME280;39663;45.432;28.050;2023-04-05T01:28:57;100622.41;;;12.38;49.97
52291;BME280;39663;45.432;28.050;2023-04-05T01:29:44;100627.78;;;12.35;49.98
52291;BME280;39663;45.432;28.050;2023-04-05T01:30:20;100624.81;;;12.43;50.02
52291;BME280;39663;45.432;28.050;2023-04-05T01:30:59;100621.71;;;12.33;50.07
52291;BME280;39663;45.432;28.050;2023-04-05T01:31:40;100626.28;;;12.41;50.02
52291;BME280;39663;45.432;28.050;2023-04-05T01:32:21;100619.87;;;12.40;50.03
52291;BME280;39663;45.432;28.050;2023-04-05T01:33:02;100617.55;;;12.38;49.98
52291;BME280;39663;45.432;28.050;2023-04-05T01:33:43;100619.57;;;12.32;50.22
52291;BME280;39663;45.432;28.050;2023-04-05T01:34:22;100619.69;;;12.56;50.21
52291;BME280;39663;45.432;28.050;2023-04-05T01:35:04;100609.94;;;12.39;49.83
52291;BME280;39663;45.432;28.050;2023-04-05T01:35:46;100615.23;;;12.34;50.04
52291;BME280;39663;45.432;28.050;2023-04-05T01:36:29;100612.31;;;12.19;50.12
52291;BME280;39663;45.432;28.050;2023-04-05T01:37:02;100612.58;;;12.43;50.04
52291;BME280;39663;45.432;28.050;2023-04-05T01:37:37;100607.83;;;12.40;50.14
52291;BME280;39663;45.432;28.050;2023-04-05T01:38:16;100600.86;;;12.33;50.13
52291;BME280;39663;45.432;28.050;2023-04-05T01:38:50;100598.00;;;12.41;49.96
52291;BME280;39663;45.432;28.050;2023-04-05T01:39:23;100600.55;;;12.39;50.05
52291;BME280;39663;45.432;28.050;2023-04-05T01:39:56;100599.25;;;12.35;49.95
52291;BME280;39663;45.432;28.050;2023-04-05T01:40:29;100601.60;;;12.51;50.15
52291;BME280;39663;45.432;28.050;2023-04-05T01:41:01;100602.37;;;12.34;50.05
52291;BME280;39663;45.432;28.050;2023-04-05T01:41:32;100593.59;;;12.35;50.04
52291;BME280;39663;45.432;28.050;2023-04-05T01:42:04;100599.31;;;12.38;50.04
52291;BME280;39663;45.432;28.050;2023-04-05T01:42:36;100591.22;;;12.34;49.55
52291;BME280;39663;45.432;28.050;2023-04-05T01:43:13;100595.76;;;12.37;49.67
52291;BME280;39663;45.432;28.050;2023-04-05T01:43:44;100597.60;;;12.34;49.93
52291;BME280;39663;45.432;28.050;2023-04-05T01:44:16;100601.99;;;12.33;50.19
52291;BME280;39663;45.432;28.050;2023-04-05T01:44:47;100594.32;;;12.31;49.89
52291;BME280;39663;45.432;28.050;2023-04-05T01:45:18;100595.52;;;12.32;49.60
52291;BME280;39663;45.432;28.050;2023-04-05T01:45:50;100596.28;;;12.41;49.70
52291;BME280;39663;45.432;28.050;2023-04-05T01:46:21;100598.07;;;12.51;49.66
52291;BME280;39663;45.432;28.050;2023-04-05T01:46:53;100606.45;;;12.48;50.05
52291;BME280;39663;45.432;28.050;2023-04-05T01:47:24;100608.49;;;12.45;49.69
52291;BME280;39663;45.432;28.050;2023-04-05T01:47:55;100603.02;;;12.24;50.08
52291;BME280;39663;45.432;28.050;2023-04-05T01:48:27;100609.29;;;12.26;49.89
52291;BME280;39663;45.432;28.050;2023-04-05T01:48:58;100614.05;;;12.45;49.92
52291;BME280;39663;45.432;28.050;2023-04-05T01:49:29;100616.62;;;12.24;49.72
52291;BME280;39663;45.432;28.050;2023-04-05T01:50:01;100609.55;;;12.24;49.94
52291;BME280;39663;45.432;28.050;2023-04-05T01:50:32;100610.67;;;12.19;49.88
52291;BME280;39663;45.432;28.050;2023-04-05T01:51:04;100615.51;;;12.26;50.08
52291;BME280;39663;45.432;28.050;2023-04-05T01:51:36;100614.15;;;12.22;49.54
52291;BME280;39663;45.432;28.050;2023-04-05T01:52:07;100614.93;;;12.45;49.71
52291;BME280;39663;45.432;28.050;2023-04-05T01:52:38;100614.70;;;12.23;49.74
52291;BME280;39663;45.432;28.050;2023-04-05T01:53:10;100613.02;;;12.21;49.80
52291;BME280;39663;45.432;28.050;2023-04-05T01:53:41;100614.23;;;12.59;49.91
52291;BME280;39663;45.432;28.050;2023-04-05T01:54:13;100611.23;;;12.40;49.79
52291;BME280;39663;45.432;28.050;2023-04-05T01:54:44;100610.27;;;12.21;49.98
52291;BME280;39663;45.432;28.050;2023-04-05T01:55:16;100606.31;;;12.33;50.09
52291;BME280;39663;45.432;28.050;2023-04-05T01:55:47;100613.05;;;12.54;50.11
52291;BME280;39663;45.432;28.050;2023-04-05T01:56:19;100604.74;;;12.38;49.85
52291;BME280;39663;45.432;28.050;2023-04-05T01:56:50;100615.43;;;12.14;50.11
52291;BME280;39663;45.432;28.050;2023-04-05T01:57:22;100617.30;;;12.21;50.02
52291;BME280;39663;45.432;28.050;2023-04-05T01:57:55;100614.92;;;12.00;50.22
52291;BME280;39663;45.432;28.050;2023-04-05T01:58:26;100615.81;;;12.18;50.17
52291;BME280;39663;45.432;28.050;2023-04-05T01:58:58;100618.04;;;12.15;50.21
52291;BME280;39663;45.432;28.050;2023-04-05T01:59:30;100617.37;;;12.42;50.24
52291;BME280;39663;45.432;28.050;2023-04-05T02:00:02;100615.77;;;12.21;50.17
52291;BME280;39663;45.432;28.050;2023-04-05T02:00:33;100621.05;;;12.26;50.17
52291;BME280;39663;45.432;28.050;2023-04-05T02:01:05;100625.08;;;12.13;50.15
52291;BME280;39663;45.432;28.050;2023-04-05T02:01:36;100613.91;;;12.20;50.04
52291;BME280;39663;45.432;28.050;2023-04-05T02:02:08;100609.16;;;12.23;50.00
52291;BME280;39663;45.432;28.050;2023-04-05T02:02:39;100621.69;;;12.18;50.27
52291;BME280;39663;45.432;28.050;2023-04-05T02:03:11;100622.26;;;12.15;50.17
52291;BME280;39663;45.432;28.050;2023-04-05T02:03:42;100621.71;;;12.59;49.99
52291;BME280;39663;45.432;28.050;2023-04-05T02:04:14;100620.62;;;12.22;50.07
52291;BME280;39663;45.432;28.050;2023-04-05T02:04:45;100621.46;;;12.51;50.07
52291;BME280;39663;45.432;28.050;2023-04-05T02:05:16;100618.92;;;12.12;49.70
52291;BME280;39663;45.432;28.050;2023-04-05T02:05:48;100625.15;;;12.45;50.00
52291;BME280;39663;45.432;28.050;2023-04-05T02:06:19;100620.94;;;12.64;50.03
52291;BME280;39663;45.432;28.050;2023-04-05T02:06:51;100611.34;;;12.50;50.15
52291;BME280;39663;45.432;28.050;2023-04-05T02:07:22;100619.38;;;12.32;50.07
52291;BME280;39663;45.432;28.050;2023-04-05T02:07:53;100608.97;;;12.44;50.13
52291;BME280;39663;45.432;28.050;2023-04-05T02:08:25;100616.81;;;12.15;50.13
52291;BME280;39663;45.432;28.050;2023-04-05T02:08:56;100617.56;;;12.17;49.98
52291;BME280;39663;45.432;28.050;2023-04-05T02:09:28;100619.73;;;12.19;50.29
52291;BME280;39663;45.432;28.050;2023-04-05T02:09:59;100611.34;;;12.20;50.11
52291;BME280;39663;45.432;28.050;2023-04-05T02:10:31;100613.73;;;12.25;50.18
52291;BME280;39663;45.432;28.050;2023-04-05T02:11:02;100609.96;;;12.39;50.05
52291;BME280;39663;45.432;28.050;2023-04-05T02:11:33;100613.54;;;12.35;50.18
52291;BME280;39663;45.432;28.050;2023-04-05T02:12:05;100617.47;;;12.27;50.36
52291;BME280;39663;45.432;28.050;2023-04-05T02:12:36;100614.35;;;12.29;50.10
52291;BME280;39663;45.432;28.050;2023-04-05T02:13:08;100615.56;;;12.04;49.99
52291;BME280;39663;45.432;28.050;2023-04-05T02:13:39;100620.27;;;12.28;50.09
52291;BME280;39663;45.432;28.050;2023-04-05T02:14:11;100619.47;;;12.23;50.10
52291;BME280;39663;45.432;28.050;2023-04-05T02:14:42;100615.01;;;12.60;50.14
52291;BME280;39663;45.432;28.050;2023-04-05T02:15:14;100618.57;;;12.27;49.91
52291;BME280;39663;45.432;28.050;2023-04-05T02:15:47;100615.33;;;12.20;50.04
52291;BME280;39663;45.432;28.050;2023-04-05T02:16:18;100618.41;;;12.13;49.74
52291;BME280;39663;45.432;28.050;2023-04-05T02:16:50;100617.02;;;12.11;50.01
52291;BME280;39663;45.432;28.050;2023-04-05T02:17:22;100621.71;;;11.89;49.84
52291;BME280;39663;45.432;28.050;2023-04-05T02:17:53;100606.14;;;12.02;50.04
52291;BME280;39663;45.432;28.050;2023-04-05T02:18:25;100607.43;;;12.12;49.96
52291;BME280;39663;45.432;28.050;2023-04-05T02:18:56;100610.29;;;11.89;50.04
52291;BME280;39663;45.432;28.050;2023-04-05T02:19:28;100599.41;;;12.06;49.89
52291;BME280;39663;45.432;28.050;2023-04-05T02:20:00;100606.88;;;11.79;49.87
52291;BME280;39663;45.432;28.050;2023-04-05T02:20:31;100605.13;;;12.12;49.95
52291;BME280;39663;45.432;28.050;2023-04-05T02:21:04;100607.67;;;12.18;50.03
52291;BME280;39663;45.432;28.050;2023-04-05T02:21:35;100601.87;;;11.79;49.75
52291;BME280;39663;45.432;28.050;2023-04-05T02:22:07;100600.13;;;12.27;49.68
52291;BME280;39663;45.432;28.050;2023-04-05T02:22:39;100601.06;;;12.24;49.78
52291;BME280;39663;45.432;28.050;2023-04-05T02:23:10;100604.43;;;12.29;49.98
52291;BME280;39663;45.432;28.050;2023-04-05T02:23:42;100603.78;;;12.11;49.43
52291;BME280;39663;45.432;28.050;2023-04-05T02:24:13;100600.79;;;12.31;49.82
52291;BME280;39663;45.432;28.050;2023-04-05T02:24:44;100602.53;;;12.30;49.25
52291;BME280;39663;45.432;28.050;2023-04-05T02:25:16;100594.74;;;12.25;49.55
52291;BME280;39663;45.432;28.050;2023-04-05T02:25:47;100596.08;;;12.26;49.72
52291;BME280;39663;45.432;28.050;2023-04-05T02:26:19;100594.72;;;12.24;49.73
52291;BME280;39663;45.432;28.050;2023-04-05T02:26:51;100600.01;;;12.48;49.91
52291;BME280;39663;45.432;28.050;2023-04-05T02:27:23;100594.17;;;12.43;49.79
52291;BME280;39663;45.432;28.050;2023-04-05T02:27:54;100592.24;;;12.20;49.78
52291;BME280;39663;45.432;28.050;2023-04-05T02:28:26;100590.15;;;12.40;49.76
52291;BME280;39663;45.432;28.050;2023-04-05T02:28:57;100593.34;;;12.22;49.68
52291;BME280;39663;45.432;28.050;2023-04-05T02:29:29;100589.85;;;12.39;49.78
52291;BME280;39663;45.432;28.050;2023-04-05T02:30:01;100590.43;;;12.20;49.94
52291;BME280;39663;45.432;28.050;2023-04-05T02:30:32;100585.41;;;12.18;49.84
52291;BME280;39663;45.432;28.050;2023-04-05T02:31:08;100584.84;;;12.16;49.83
52291;BME280;39663;45.432;28.050;2023-04-05T02:31:40;100588.09;;;12.39;49.62
52291;BME280;39663;45.432;28.050;2023-04-05T02:32:11;100591.40;;;12.21;49.85
52291;BME280;39663;45.432;28.050;2023-04-05T02:32:42;100591.13;;;12.18;50.08
52291;BME280;39663;45.432;28.050;2023-04-05T02:33:14;100593.71;;;12.38;49.94
52291;BME280;39663;45.432;28.050;2023-04-05T02:33:45;100592.37;;;12.33;49.46
52291;BME280;39663;45.432;28.050;2023-04-05T02:34:17;100583.58;;;12.35;49.58
52291;BME280;39663;45.432;28.050;2023-04-05T02:34:48;100586.94;;;12.11;49.75
52291;BME280;39663;45.432;28.050;2023-04-05T02:35:20;100586.50;;;12.33;49.84
52291;BME280;39663;45.432;28.050;2023-04-05T02:35:52;100579.46;;;12.11;49.83
52291;BME280;39663;45.432;28.050;2023-04-05T02:36:24;100585.37;;;12.33;49.70
52291;BME280;39663;45.432;28.050;2023-04-05T02:36:55;100588.58;;;12.36;49.96
52291;BME280;39663;45.432;28.050;2023-04-05T02:37:27;100585.03;;;12.36;50.02
52291;BME280;39663;45.432;28.050;2023-04-05T02:37:58;100578.76;;;12.30;49.80
52291;BME280;39663;45.432;28.050;2023-04-05T02:38:29;100588.32;;;12.53;49.81
52291;BME280;39663;45.432;28.050;2023-04-05T02:39:01;100588.65;;;12.09;49.57
52291;BME280;39663;45.432;28.050;2023-04-05T02:39:32;100574.67;;;12.08;49.66
52291;BME280;39663;45.432;28.050;2023-04-05T02:40:06;100580.58;;;12.26;49.90
52291;BME280;39663;45.432;28.050;2023-04-05T02:40:37;100582.69;;;12.08;50.02
52291;BME280;39663;45.432;28.050;2023-04-05T02:41:09;100585.08;;;12.24;49.85
52291;BME280;39663;45.432;28.050;2023-04-05T02:41:41;100580.96;;;12.04;49.63
52291;BME280;39663;45.432;28.050;2023-04-05T02:42:13;100588.05;;;12.19;49.85
52291;BME280;39663;45.432;28.050;2023-04-05T02:42:44;100585.29;;;12.48;49.97
52291;BME280;39663;45.432;28.050;2023-04-05T02:43:15;100589.73;;;12.23;49.99
52291;BME280;39663;45.432;28.050;2023-04-05T02:43:47;100581.98;;;12.27;49.84
52291;BME280;39663;45.432;28.050;2023-04-05T02:44:18;100582.12;;;12.49;49.92
52291;BME280;39663;45.432;28.050;2023-04-05T02:44:50;100586.78;;;12.29;50.01
52291;BME280;39663;45.432;28.050;2023-04-05T02:45:22;100584.19;;;12.23;49.71
52291;BME280;39663;45.432;28.050;2023-04-05T02:45:53;100588.29;;;12.06;49.96
52291;BME280;39663;45.432;28.050;2023-04-05T02:46:25;100578.69;;;12.05;49.96
52291;BME280;39663;45.432;28.050;2023-04-05T02:46:56;100588.01;;;12.05;49.91
52291;BME280;39663;45.432;28.050;2023-04-05T02:47:28;100589.43;;;12.11;49.94
52291;BME280;39663;45.432;28.050;2023-04-05T02:47:59;100588.08;;;12.29;49.97
52291;BME280;39663;45.432;28.050;2023-04-05T02:48:31;100584.30;;;12.28;49.83
52291;BME280;39663;45.432;28.050;2023-04-05T02:49:02;100584.11;;;12.11;49.94
52291;BME280;39663;45.432;28.050;2023-04-05T02:49:34;100587.49;;;12.14;49.86
52291;BME280;39663;45.432;28.050;2023-04-05T02:50:06;100584.71;;;12.32;49.92
52291;BME280;39663;45.432;28.050;2023-04-05T02:50:38;100586.08;;;12.11;49.89
52291;BME280;39663;45.432;28.050;2023-04-05T02:51:09;100586.24;;;12.53;50.19